Time;durP1;ratioP1;P1;durP2;ratioP2;P2;SDS_P1;SDS_P2;PMS_P1;PMS_P2;Temp;Humidity;BMP_temperature;BMP_pressure;BME280_temperature;BME280_humidity;BME280_pressure;Samples;Min_cycle;Max_cycle;Signal;HPM_P1;HPM_P2
2023/09/23 00:01:32;;;;;;;17.02;8.55;;;;;;;10.09;100.00;100769.44;5076054;28;20115;-77
2023/09/23 00:03:57;;;;;;;18.88;11.27;;;;;;;10.02;100.00;100761.16;5075965;28;20040;-77
2023/09/23 00:06:23;;;;;;;14.40;8.55;;;;;;;9.98;100.00;100767.72;5076345;28;20029;-77
2023/09/23 00:08:49;;;;;;;13.57;7.50;;;;;;;9.90;100.00;100764.94;5075954;28;20056;-78
2023/09/23 00:11:15;;;;;;;17.20;7.82;;;;;;;9.84;100.00;100762.81;5074519;28;20067;-77
2023/09/23 00:13:40;;;;;;;12.13;6.85;;;;;;;9.81;100.00;100774.53;5075638;28;20487;-78
2023/09/23 00:16:11;;;;;;;18.77;7.57;;;;;;;9.76;100.00;100768.78;5075582;28;20028;-78
2023/09/23 00:18:38;;;;;;;15.13;5.90;;;;;;;9.74;100.00;100767.25;5075963;28;20024;-78
2023/09/23 00:21:05;;;;;;;8.27;5.18;;;;;;;9.70;100.00;100767.53;5074252;28;20074;-78
2023/09/23 00:23:32;;;;;;;8.77;4.63;;;;;;;9.68;100.00;100781.91;5075486;28;20063;-77
2023/09/23 00:25:58;;;;;;;9.60;4.13;;;;;;;9.66;100.00;100774.09;5075182;28;20031;-77
2023/09/23 00:28:25;;;;;;;6.18;3.40;;;;;;;9.67;100.00;100782.88;5075473;28;20085;-77
2023/09/23 00:30:53;;;;;;;9.60;3.40;;;;;;;9.68;100.00;100793.38;5073924;28;20468;-77
2023/09/23 00:33:18;;;;;;;9.27;3.17;;;;;;;9.75;100.00;100792.84;5075325;28;20056;-80
2023/09/23 00:35:44;;;;;;;7.25;3.17;;;;;;;9.79;100.00;100788.94;5075497;28;20457;-80
2023/09/23 00:38:11;;;;;;;7.50;3.00;;;;;;;9.85;100.00;100807.84;5073734;28;20032;-79
2023/09/23 00:40:38;;;;;;;8.70;2.97;;;;;;;9.86;100.00;100804.19;5075468;28;20037;-77
2023/09/23 00:43:12;;;;;;;6.00;2.40;;;;;;;9.89;100.00;100803.09;5075042;28;20036;-77
2023/09/23 00:45:48;;;;;;;8.95;2.83;;;;;;;9.92;100.00;100805.47;5074721;28;20020;-77
2023/09/23 00:48:18;;;;;;;9.30;2.75;;;;;;;9.94;100.00;100805.34;5075726;28;20029;-77
2023/09/23 00:50:43;;;;;;;8.60;3.47;;;;;;;9.95;100.00;100807.03;5074998;28;20067;-76
2023/09/23 00:53:09;;;;;;;11.20;5.97;;;;;;;9.95;100.00;100807.88;5074984;28;20076;-77
2023/09/23 00:55:42;;;;;;;17.98;6.25;;;;;;;9.95;100.00;100817.66;5075243;28;20102;-76
2023/09/23 00:58:14;;;;;;;20.83;9.07;;;;;;;9.95;100.00;100813.19;5075385;28;20452;-77
2023/09/23 01:00:43;;;;;;;21.23;12.13;;;;;;;9.97;100.00;100815.69;5074690;28;20465;-76
2023/09/23 01:03:12;;;;;;;30.50;13.20;;;;;;;9.98;100.00;100820.06;5074715;28;20043;-78
2023/09/23 01:05:39;;;;;;;37.33;17.45;;;;;;;10.00;100.00;100818.09;5073592;28;20183;-77
2023/09/23 01:08:12;;;;;;;36.70;17.10;;;;;;;10.02;100.00;100808.19;5074811;28;20037;-76
2023/09/23 01:10:38;;;;;;;34.65;17.83;;;;;;;10.03;100.00;100816.00;5074347;28;20366;-77
2023/09/23 01:13:07;;;;;;;32.80;17.27;;;;;;;10.02;100.00;100816.97;5074941;28;20032;-77
2023/09/23 01:15:34;;;;;;;38.55;17.35;;;;;;;10.07;100.00;100832.53;5074562;28;20036;-78
2023/09/23 01:18:01;;;;;;;31.25;15.98;;;;;;;10.09;100.00;100824.41;5074527;28;20108;-79
2023/09/23 01:20:26;;;;;;;28.67;15.57;;;;;;;10.09;100.00;100825.28;5074622;28;20032;-78
2023/09/23 01:22:52;;;;;;;27.88;14.57;;;;;;;10.11;100.00;100825.97;5074451;28;20040;-78
2023/09/23 01:25:19;;;;;;;31.92;15.15;;;;;;;10.12;100.00;100825.00;5073546;28;20037;-78
2023/09/23 01:27:44;;;;;;;33.97;14.95;;;;;;;10.12;100.00;100822.34;5074226;28;20059;-78
2023/09/23 01:30:12;;;;;;;33.00;15.15;;;;;;;10.14;100.00;100825.69;5074697;28;20052;-78
2023/09/23 01:32:50;;;;;;;36.40;15.60;;;;;;;10.15;100.00;100823.84;5074062;28;20081;-77
2023/09/23 01:35:16;;;;;;;39.38;16.98;;;;;;;10.14;100.00;100823.03;5074519;28;20090;-78
2023/09/23 01:37:44;;;;;;;33.50;16.38;;;;;;;10.15;100.00;100818.53;5074194;28;20029;-79
2023/09/23 01:40:19;;;;;;;39.50;17.83;;;;;;;10.14;100.00;100825.69;5072696;28;20059;-78
2023/09/23 01:42:46;;;;;;;38.38;16.83;;;;;;;10.13;100.00;100824.00;5074048;28;20423;-77
2023/09/23 01:45:13;;;;;;;41.83;18.60;;;;;;;10.16;100.00;100833.53;5073853;28;20118;-78
2023/09/23 01:47:41;;;;;;;39.25;17.98;;;;;;;10.18;100.00;100827.09;5072759;28;20044;-77
2023/09/23 01:50:09;;;;;;;46.00;19.85;;;;;;;10.22;100.00;100833.81;5073910;28;20062;-78
2023/09/23 01:52:36;;;;;;;41.25;18.60;;;;;;;10.26;100.00;100844.19;5070792;28;20207;-90
2023/09/23 01:55:04;;;;;;;43.78;19.55;;;;;;;10.29;100.00;100852.72;5071055;28;20032;-87
2023/09/23 01:57:30;;;;;;;39.40;18.60;;;;;;;10.29;100.00;100849.25;5069682;28;20518;-88
2023/09/23 01:59:56;;;;;;;43.25;19.45;;;;;;;10.28;100.00;100863.50;5069558;28;20074;-86
2023/09/23 02:02:21;;;;;;;44.05;19.20;;;;;;;10.24;100.00;100847.81;5070674;28;20039;-89
2023/09/23 02:04:48;;;;;;;43.85;18.48;;;;;;;10.23;100.00;100856.78;5052965;28;20043;-89
2023/09/23 02:07:14;;;;;;;39.35;17.33;;;;;;;10.20;100.00;100848.25;5070597;28;20040;-86
2023/09/23 02:09:40;;;;;;;35.63;14.68;;;;;;;10.17;100.00;100848.50;5069302;28;20070;-87
2023/09/23 02:12:06;;;;;;;27.60;13.07;;;;;;;10.11;100.00;100849.88;5052152;28;20121;-89
2023/09/23 02:14:31;;;;;;;29.27;12.65;;;;;;;10.05;100.00;100848.59;5069050;28;20039;-91
2023/09/23 02:16:57;;;;;;;24.85;10.27;;;;;;;9.99;100.00;100849.16;5068887;28;20183;-89
2023/09/23 02:19:26;;;;;;;22.80;10.02;;;;;;;9.94;100.00;100851.38;5069042;28;20044;-90
2023/09/23 02:21:51;;;;;;;21.75;8.90;;;;;;;9.92;100.00;100852.50;5069180;28;20519;-87
2023/09/23 02:24:19;;;;;;;15.80;7.95;;;;;;;9.91;100.00;100854.28;5068845;28;20154;-89
2023/09/23 02:26:46;;;;;;;16.08;6.88;;;;;;;9.90;100.00;100855.28;5069091;28;20103;-90
2023/09/23 02:29:14;;;;;;;16.20;5.00;;;;;;;9.87;100.00;100866.19;5052522;28;20028;-91
2023/09/23 02:31:49;;;;;;;12.45;4.43;;;;;;;9.86;100.00;100872.47;5070629;28;20531;-91
2023/09/23 02:34:16;;;;;;;9.90;4.22;;;;;;;9.85;100.00;100871.63;5069020;28;20069;-89
2023/09/23 02:36:43;;;;;;;8.85;4.28;;;;;;;9.86;100.00;100870.63;5070498;28;20084;-90
2023/09/23 02:39:14;;;;;;;17.30;4.82;;;;;;;9.87;100.00;100875.00;5068810;28;20055;-89
2023/09/23 02:41:40;;;;;;;8.45;4.47;;;;;;;9.87;100.00;100874.16;5071036;28;20036;-86
2023/09/23 02:44:08;;;;;;;12.13;4.15;;;;;;;9.89;100.00;100872.19;5069483;28;20078;-88
2023/09/23 02:46:34;;;;;;;12.48;4.68;;;;;;;9.89;100.00;100881.00;5069676;28;20059;-90
2023/09/23 02:48:59;;;;;;;8.63;4.18;;;;;;;9.90;100.00;100873.88;5070719;28;20493;-90
2023/09/23 02:51:27;;;;;;;8.48;3.90;;;;;;;9.88;100.00;100868.72;5070300;28;20031;-91
2023/09/23 02:53:56;;;;;;;7.93;4.10;;;;;;;9.92;100.00;100876.41;5071215;28;20449;-89
2023/09/23 02:56:21;;;;;;;13.60;4.50;;;;;;;9.92;100.00;100879.06;5056391;28;20395;-91
2023/09/23 02:58:47;;;;;;;11.25;4.80;;;;;;;9.93;100.00;100883.38;5072817;28;20152;-90
2023/09/23 03:01:14;;;;;;;10.00;4.20;;;;;;;9.94;100.00;100887.75;5074954;28;20054;-90
2023/09/23 03:03:43;;;;;;;10.20;4.32;;;;;;;9.96;100.00;100891.13;5056436;28;20044;-89
2023/09/23 03:06:10;;;;;;;17.38;4.88;;;;;;;9.97;100.00;100900.75;5056283;28;20119;-89
2023/09/23 03:08:38;;;;;;;11.60;4.35;;;;;;;10.00;100.00;100919.09;5073825;28;20085;-84
2023/09/23 03:11:12;;;;;;;13.20;4.70;;;;;;;10.03;100.00;100919.69;5073041;28;20045;-85
2023/09/23 03:13:40;;;;;;;11.20;4.75;;;;;;;10.10;100.00;100909.34;5073107;28;20052;-82
2023/09/23 03:16:11;;;;;;;11.52;4.28;;;;;;;10.13;100.00;100924.19;5072643;28;20123;-83
2023/09/23 03:18:42;;;;;;;10.07;3.30;;;;;;;10.15;100.00;100917.78;5074503;28;20517;-84
2023/09/23 03:21:08;;;;;;;13.68;3.20;;;;;;;10.15;100.00;100915.13;5074164;28;20441;-85
2023/09/23 03:23:35;;;;;;;12.27;3.03;;;;;;;10.18;100.00;100924.63;5074312;28;20238;-85
2023/09/23 03:26:00;;;;;;;9.05;2.80;;;;;;;10.18;100.00;100919.31;5056043;28;20056;-86
2023/09/23 03:28:25;;;;;;;9.27;3.17;;;;;;;10.15;100.00;100923.09;5073384;28;20477;-86
2023/09/23 03:30:59;;;;;;;9.77;2.80;;;;;;;10.11;100.00;100919.00;5073479;28;20406;-85
2023/09/23 03:33:25;;;;;;;6.72;2.90;;;;;;;10.06;100.00;100926.53;5073527;28;20074;-86
2023/09/23 03:35:50;;;;;;;11.07;2.92;;;;;;;10.02;100.00;100925.13;5072249;28;20058;-86
2023/09/23 03:38:16;;;;;;;8.35;2.90;;;;;;;9.99;100.00;100922.75;5072044;28;20043;-85
2023/09/23 03:40:54;;;;;;;6.93;2.63;;;;;;;9.95;100.00;100934.63;5072148;28;20129;-88
2023/09/23 03:43:23;;;;;;;7.22;2.88;;;;;;;9.91;100.00;100931.38;5073979;28;20131;-86
2023/09/23 03:45:49;;;;;;;7.13;2.65;;;;;;;9.85;100.00;100932.75;5073825;28;20048;-86
2023/09/23 03:48:15;;;;;;;7.78;3.40;;;;;;;9.85;100.00;100929.25;5072174;28;20122;-86
2023/09/23 03:50:41;;;;;;;7.07;3.40;;;;;;;9.84;100.00;100936.38;5072465;28;20476;-87
2023/09/23 03:53:06;;;;;;;8.27;3.45;;;;;;;9.86;100.00;100941.56;5073332;28;20435;-88
2023/09/23 03:55:32;;;;;;;11.40;3.58;;;;;;;9.91;100.00;100938.50;5055954;28;20063;-88
2023/09/23 03:58:01;;;;;;;6.82;3.47;;;;;;;9.95;100.00;100937.28;5074053;28;20035;-89
2023/09/23 04:00:26;;;;;;;13.32;4.30;;;;;;;9.97;100.00;100946.81;5072062;28;20048;-89
2023/09/23 04:02:54;;;;;;;8.32;4.00;;;;;;;10.00;100.00;100951.00;5071913;28;20071;-88
2023/09/23 04:05:23;;;;;;;13.23;4.57;;;;;;;10.02;100.00;100957.03;5073023;28;20063;-88
2023/09/23 04:07:50;;;;;;;10.80;4.82;;;;;;;10.01;100.00;100950.03;5073571;28;20096;-87
2023/09/23 04:10:23;;;;;;;9.07;4.82;;;;;;;9.99;100.00;100950.16;5072065;28;20138;-87
2023/09/23 04:12:49;;;;;;;15.15;5.47;;;;;;;10.01;100.00;100953.53;5072486;28;20415;-89
2023/09/23 04:15:15;;;;;;;11.48;5.95;;;;;;;10.00;100.00;100954.50;5072026;28;20028;-90
2023/09/23 04:17:40;;;;;;;13.48;5.88;;;;;;;10.02;100.00;100957.88;5072023;28;20035;-89
2023/09/23 04:20:10;;;;;;;14.82;6.65;;;;;;;10.03;100.00;100959.56;5055106;28;20028;-89
2023/09/23 04:22:37;;;;;;;15.32;7.07;;;;;;;10.05;100.00;100954.13;5072978;28;20104;-91
2023/09/23 04:25:06;;;;;;;15.63;7.30;;;;;;;10.04;100.00;100960.41;5073849;28;20060;-91
2023/09/23 04:27:39;;;;;;;20.38;7.60;;;;;;;10.06;100.00;100969.06;5072956;28;20043;-89
2023/09/23 04:30:11;;;;;;;20.90;7.57;;;;;;;10.09;100.00;100965.31;5071714;28;20460;-90
2023/09/23 04:32:39;;;;;;;17.80;8.30;;;;;;;10.13;100.00;100972.06;5073100;28;20039;-89
2023/09/23 04:35:09;;;;;;;17.23;8.13;;;;;;;10.15;100.00;100970.09;5071611;28;20028;-90
2023/09/23 04:37:38;;;;;;;17.85;7.53;;;;;;;10.16;100.00;100985.09;5055925;28;20040;-90
2023/09/23 04:40:15;;;;;;;16.15;7.80;;;;;;;10.16;100.00;100980.59;5071284;28;20060;-92
2023/09/23 04:42:42;;;;;;;12.82;7.88;;;;;;;10.17;100.00;100986.78;5056571;28;20068;-91
2023/09/23 04:45:10;;;;;;;18.70;8.13;;;;;;;10.13;100.00;100986.19;5072801;28;20128;-90
2023/09/23 04:47:36;;;;;;;20.90;8.88;;;;;;;10.17;100.00;100994.75;5071526;28;20040;-89
2023/09/23 04:50:07;;;;;;;17.85;8.00;;;;;;;10.14;100.00;100995.84;5072396;28;20070;-90
2023/09/23 04:52:33;;;;;;;17.20;8.57;;;;;;;10.15;100.00;101005.53;5071102;28;20032;-90
2023/09/23 04:55:02;;;;;;;19.20;8.57;;;;;;;10.12;100.00;100992.50;5071087;28;20059;-90
2023/09/23 04:57:27;;;;;;;17.17;8.75;;;;;;;10.11;100.00;101004.09;5072225;28;20465;-89
2023/09/23 04:59:57;;;;;;;19.73;8.32;;;;;;;10.09;100.00;101003.41;5071183;28;20034;-91
2023/09/23 05:02:23;;;;;;;17.52;8.05;;;;;;;10.09;100.00;101007.84;5072487;28;20078;-90
2023/09/23 05:04:53;;;;;;;15.32;7.72;;;;;;;10.12;100.00;101013.75;5070091;28;20066;-88
2023/09/23 05:07:19;;;;;;;25.83;8.88;;;;;;;10.17;100.00;101016.03;5070827;28;20054;-87
2023/09/23 05:09:45;;;;;;;21.42;8.57;;;;;;;10.19;100.00;101014.06;5070640;28;20045;-88
2023/09/23 05:12:11;;;;;;;26.25;8.63;;;;;;;10.23;100.00;101023.47;5070749;28;20028;-88
2023/09/23 05:14:46;;;;;;;19.60;8.13;;;;;;;10.25;100.00;101024.16;5070828;28;20089;-89
2023/09/23 05:17:14;;;;;;;14.90;8.00;;;;;;;10.24;100.00;101022.50;5071965;28;20054;-89
2023/09/23 05:19:42;;;;;;;18.67;8.10;;;;;;;10.26;100.00;101028.53;5071057;28;20028;-88
2023/09/23 05:22:10;;;;;;;21.75;7.93;;;;;;;10.28;100.00;101033.72;5070612;28;20349;-88
2023/09/23 05:24:37;;;;;;;13.40;7.20;;;;;;;10.28;100.00;101031.88;5070443;28;20133;-88
2023/09/23 05:27:07;;;;;;;18.80;7.45;;;;;;;10.28;100.00;101031.88;5070099;28;20421;-88
2023/09/23 05:29:38;;;;;;;20.75;7.60;;;;;;;10.27;100.00;101040.00;5070486;28;20086;-88
2023/09/23 05:32:03;;;;;;;15.43;6.90;;;;;;;10.29;100.00;101041.56;5054291;28;20048;-90
2023/09/23 05:34:29;;;;;;;13.70;7.00;;;;;;;10.29;100.00;101049.53;5070539;28;20407;-90
2023/09/23 05:36:55;;;;;;;12.20;7.15;;;;;;;10.30;100.00;101053.03;5069984;28;20058;-91
2023/09/23 05:39:23;;;;;;;16.15;7.40;;;;;;;10.32;100.00;101067.88;5069341;28;20048;-90
2023/09/23 05:41:51;;;;;;;18.13;7.25;;;;;;;10.31;100.00;101058.22;5071574;28;20098;-90
2023/09/23 05:44:18;;;;;;;12.88;7.30;;;;;;;10.35;100.00;101067.66;5071593;28;20061;-89
2023/09/23 05:46:46;;;;;;;20.42;7.57;;;;;;;10.36;100.00;101069.34;5070929;28;20056;-89
2023/09/23 05:49:18;;;;;;;14.50;8.20;;;;;;;10.39;100.00;101082.38;5069694;28;20482;-90
2023/09/23 05:51:47;;;;;;;22.73;7.88;;;;;;;10.41;100.00;101084.91;5071601;28;20472;-90
2023/09/23 05:54:15;;;;;;;16.75;7.90;;;;;;;10.43;100.00;101090.91;5069444;28;20033;-90
2023/09/23 05:56:42;;;;;;;21.38;7.97;;;;;;;10.45;100.00;101089.00;5070048;28;20085;-90
2023/09/23 05:59:08;;;;;;;15.27;7.72;;;;;;;10.45;100.00;101093.44;5070929;28;20051;-89
2023/09/23 06:01:35;;;;;;;14.02;7.32;;;;;;;10.47;100.00;101107.47;5070143;28;20038;-88
2023/09/23 06:04:01;;;;;;;13.85;6.95;;;;;;;10.41;100.00;101107.00;5070213;28;20032;-89
2023/09/23 06:06:27;;;;;;;13.80;6.50;;;;;;;10.41;100.00;101103.53;5071252;28;20028;-88
2023/09/23 06:08:56;;;;;;;15.23;6.93;;;;;;;10.43;100.00;101114.03;5071445;28;20441;-90
2023/09/23 06:11:22;;;;;;;13.23;6.50;;;;;;;10.46;100.00;101114.59;5069242;28;20024;-87
2023/09/23 06:13:47;;;;;;;19.10;6.53;;;;;;;10.48;100.00;101112.66;5069617;28;20522;-86
2023/09/23 06:16:13;;;;;;;9.45;5.38;;;;;;;10.56;100.00;101112.00;5071224;28;20036;-87
2023/09/23 06:18:38;;;;;;;14.38;6.53;;;;;;;10.64;100.00;101127.31;5069233;28;20074;-84
2023/09/23 06:21:06;;;;;;;13.80;6.40;;;;;;;10.75;100.00;101132.56;5070387;28;20428;-84
2023/09/23 06:23:33;;;;;;;14.27;5.55;;;;;;;10.83;100.00;101138.03;5068707;28;20032;-85
2023/09/23 06:26:05;;;;;;;16.98;5.50;;;;;;;10.89;100.00;101153.47;5070017;28;20422;-85
2023/09/23 06:28:32;;;;;;;8.73;4.22;;;;;;;10.93;100.00;101152.22;5069943;28;20044;-86
2023/09/23 06:30:57;;;;;;;15.60;4.05;;;;;;;10.90;100.00;101143.69;5068611;28;20422;-86
2023/09/23 06:33:23;;;;;;;14.32;4.60;;;;;;;10.89;100.00;101144.66;5070286;28;20044;-84
2023/09/23 06:35:54;;;;;;;8.02;3.90;;;;;;;10.90;100.00;101151.66;5068493;28;20039;-88
2023/09/23 06:38:19;;;;;;;7.85;4.07;;;;;;;10.97;100.00;101154.63;5070219;28;20028;-82
2023/09/23 06:40:47;;;;;;;15.52;6.93;;;;;;;11.07;100.00;101158.16;5070385;28;20411;-83
2023/09/23 06:43:13;;;;;;;11.40;4.68;;;;;;;11.10;100.00;101160.56;5068424;28;20417;-81
2023/09/23 06:45:43;;;;;;;15.20;4.68;;;;;;;11.11;100.00;101170.25;5070118;28;20103;-83
2023/09/23 06:48:12;;;;;;;11.65;4.68;;;;;;;11.06;100.00;101180.44;5069502;28;20028;-80
2023/09/23 06:50:50;;;;;;;11.13;4.30;;;;;;;11.06;100.00;101172.44;5068418;28;20111;-83
2023/09/23 06:53:15;;;;;;;7.90;5.00;;;;;;;11.05;100.00;101176.94;5069745;28;20043;-81
2023/09/23 06:55:41;;;;;;;10.45;4.88;;;;;;;11.06;100.00;101175.97;5068247;28;20037;-82
2023/09/23 06:58:15;;;;;;;10.68;4.75;;;;;;;11.08;100.00;101174.00;5069816;28;20357;-83
2023/09/23 07:00:49;;;;;;;7.18;4.93;;;;;;;11.11;100.00;101172.91;5068183;28;20078;-82
2023/09/23 07:03:14;;;;;;;10.05;5.20;;;;;;;11.14;100.00;101177.97;5068170;28;20064;-83
2023/09/23 07:05:41;;;;;;;7.93;4.80;;;;;;;11.17;100.00;101169.69;5069736;28;20115;-79
2023/09/23 07:08:07;;;;;;;16.98;6.10;;;;;;;11.23;100.00;101182.47;5069807;28;20036;-83
2023/09/23 07:10:34;;;;;;;15.40;5.38;;;;;;;11.27;100.00;101183.91;5051553;28;20040;-81
2023/09/23 07:13:00;;;;;;;10.68;4.88;;;;;;;11.32;100.00;101188.81;5069527;28;20564;-81
2023/09/23 07:15:25;;;;;;;18.73;5.88;;;;;;;11.37;100.00;101188.41;5069023;28;20064;-82
2023/09/23 07:17:51;;;;;;;9.55;5.53;;;;;;;11.42;100.00;101188.84;5070078;28;20028;-83
2023/09/23 07:20:24;;;;;;;13.43;5.22;;;;;;;11.47;100.00;101200.78;5069719;28;20441;-83
2023/09/23 07:23:40;;;;;;;18.45;5.57;;;;;;;11.53;100.00;101193.22;5068436;28;20037;-83
2023/09/23 07:25:42;;;;;;;15.18;5.50;;;;;;;11.57;100.00;101202.63;5065481;28;20040;-76
2023/09/23 07:28:08;;;;;;;9.18;4.57;;;;;;;11.58;100.00;101205.13;5069666;28;20472;-77
2023/09/23 07:30:34;;;;;;;10.52;5.40;;;;;;;11.59;100.00;101217.50;5069913;28;20040;-78
2023/09/23 07:33:00;;;;;;;9.27;4.72;;;;;;;11.65;100.00;101221.44;5069637;28;20033;-80
2023/09/23 07:35:31;;;;;;;12.88;4.43;;;;;;;11.77;100.00;101224.84;5069838;28;20514;-80
2023/09/23 07:37:56;;;;;;;10.80;4.50;;;;;;;11.94;100.00;101236.69;5069728;28;20060;-77
2023/09/23 07:40:22;;;;;;;10.00;4.15;;;;;;;12.13;100.00;101238.53;5068671;28;20404;-76
2023/09/23 07:42:47;;;;;;;11.15;3.95;;;;;;;12.25;100.00;101245.41;5073305;28;20123;-76
2023/09/23 07:45:12;;;;;;;11.23;3.20;;;;;;;12.22;100.00;101240.34;5073591;28;20318;-79
2023/09/23 07:47:38;;;;;;;7.90;3.03;;;;;;;12.33;100.00;101242.91;5073131;28;20028;-79
2023/09/23 07:50:03;;;;;;;10.27;2.70;;;;;;;12.41;100.00;101252.03;5073327;28;20048;-82
2023/09/23 07:52:29;;;;;;;11.32;3.17;;;;;;;12.43;100.00;101253.53;5072833;28;20029;-79
2023/09/23 07:54:54;;;;;;;6.82;3.10;;;;;;;12.51;100.00;101256.38;5072858;28;20029;-77
2023/09/23 07:57:19;;;;;;;6.47;2.80;;;;;;;12.59;100.00;101266.31;5073365;28;20550;-77
2023/09/23 07:59:45;;;;;;;11.90;2.70;;;;;;;12.73;100.00;101272.22;5073132;28;20029;-76
2023/09/23 08:02:10;;;;;;;7.38;3.00;;;;;;;12.93;100.00;101268.53;5073393;28;20123;-76
2023/09/23 08:04:36;;;;;;;5.78;2.55;;;;;;;13.12;100.00;101274.78;5073915;28;20037;-77
2023/09/23 08:07:01;;;;;;;4.38;2.53;;;;;;;13.30;100.00;101277.56;5073054;28;20354;-78
2023/09/23 08:09:26;;;;;;;7.90;2.15;;;;;;;13.66;100.00;101286.59;5073895;28;20060;-76
2023/09/23 08:11:52;;;;;;;9.98;2.65;;;;;;;13.70;100.00;101289.78;5073077;28;20029;-78
2023/09/23 08:14:17;;;;;;;12.65;1.95;;;;;;;13.70;100.00;101304.03;5073107;28;20344;-76
2023/09/23 08:16:45;;;;;;;5.90;2.45;;;;;;;13.72;100.00;101309.22;5073973;28;20135;-90
2023/09/23 08:19:10;;;;;;;4.97;2.22;;;;;;;13.64;100.00;101315.28;5055425;28;20064;-84
2023/09/23 08:21:36;;;;;;;6.97;1.70;;;;;;;13.66;100.00;101316.00;5055079;28;20056;-87
2023/09/23 08:24:01;;;;;;;8.10;2.38;;;;;;;13.65;100.00;101316.97;5071734;28;20123;-88
2023/09/23 08:26:26;;;;;;;4.85;1.63;;;;;;;13.62;100.00;101325.31;5054641;28;20062;-88
2023/09/23 08:28:54;;;;;;;7.10;1.80;;;;;;;13.63;100.00;101331.47;5072957;28;20032;-85
2023/09/23 08:31:20;;;;;;;9.82;2.00;;;;;;;13.72;100.00;101331.44;5071740;28;20032;-91
2023/09/23 08:33:45;;;;;;;6.18;2.25;;;;;;;13.72;100.00;101336.81;5070983;28;20055;-89
2023/09/23 08:36:11;;;;;;;8.63;1.98;;;;;;;13.70;100.00;101333.44;5071356;28;20499;-88
2023/09/23 08:38:36;;;;;;;5.82;1.90;;;;;;;13.72;100.00;101333.28;5054282;28;20043;-90
2023/09/23 08:41:05;;;;;;;10.60;2.55;;;;;;;13.67;100.00;101332.88;5070995;28;20466;-88
2023/09/23 08:43:36;;;;;;;5.55;1.52;;;;;;;13.63;100.00;101343.03;5072683;28;20040;-92
2023/09/23 08:46:04;;;;;;;5.30;1.55;;;;;;;13.63;100.00;101352.88;5055334;28;20370;-87
2023/09/23 08:48:31;;;;;;;6.82;1.63;;;;;;;13.52;100.00;101359.25;5072669;28;20051;-90
2023/09/23 08:50:58;;;;;;;7.38;1.58;;;;;;;13.40;100.00;101367.47;5070895;28;20025;-87
2023/09/23 08:53:26;;;;;;;5.32;1.73;;;;;;;13.25;100.00;101374.19;5069486;28;20112;-82
2023/09/23 08:55:53;;;;;;;7.32;1.30;;;;;;;12.98;100.00;101382.94;5072402;28;20024;-91
2023/09/23 08:58:18;;;;;;;7.03;1.15;;;;;;;12.82;100.00;101389.72;5072097;28;20098;-90
2023/09/23 09:00:46;;;;;;;4.50;0.93;;;;;;;12.64;100.00;101397.53;5070639;28;20492;-91
2023/09/23 09:03:13;;;;;;;5.75;1.00;;;;;;;12.47;100.00;101401.75;5070814;28;20123;-91
2023/09/23 09:05:39;;;;;;;5.50;0.95;;;;;;;12.39;100.00;101398.94;5071902;28;20036;-84
2023/09/23 09:08:06;;;;;;;6.68;1.00;;;;;;;12.35;100.00;101403.69;5071952;28;20147;-86
2023/09/23 09:10:31;;;;;;;10.05;1.13;;;;;;;12.41;100.00;101412.13;5071992;28;20115;-90
2023/09/23 09:12:59;;;;;;;7.38;1.10;;;;;;;12.41;100.00;101412.13;5071416;28;20123;-84
2023/09/23 09:15:24;;;;;;;3.05;0.80;;;;;;;12.47;100.00;101419.59;5071534;28;20047;-82
2023/09/23 09:17:50;;;;;;;5.63;0.93;;;;;;;12.62;100.00;101418.19;5070636;28;20036;-89
2023/09/23 09:20:15;;;;;;;7.15;0.90;;;;;;;12.69;100.00;101424.69;5069953;28;20055;-84
2023/09/23 09:22:45;;;;;;;6.15;1.20;;;;;;;12.81;100.00;101430.75;5052960;28;20407;-82
2023/09/23 09:25:11;;;;;;;4.18;1.00;;;;;;;12.85;100.00;101439.31;5071033;28;20210;-80
2023/09/23 09:27:37;;;;;;;3.83;1.00;;;;;;;12.86;100.00;101441.84;5071215;28;20452;-86
2023/09/23 09:30:11;;;;;;;9.02;1.60;;;;;;;12.85;100.00;101448.19;5071294;28;20033;-88
2023/09/23 09:32:42;;;;;;;3.47;1.10;;;;;;;12.83;100.00;101447.47;5069835;28;20043;-81
2023/09/23 09:35:13;;;;;;;3.10;1.17;;;;;;;12.81;100.00;101452.09;5071369;28;20079;-80
2023/09/23 09:37:43;;;;;;;2.15;1.20;;;;;;;12.87;100.00;101456.06;5069868;28;20032;-83
2023/09/23 09:40:23;;;;;;;5.18;1.40;;;;;;;12.91;100.00;101459.28;5070565;28;20051;-83
2023/09/23 09:42:55;;;;;;;6.53;1.77;;;;;;;13.02;100.00;101462.66;5071031;28;20031;-85
2023/09/23 09:45:23;;;;;;;2.83;1.20;;;;;;;13.22;100.00;101457.31;5070780;28;20032;-80
2023/09/23 09:47:51;;;;;;;6.40;1.40;;;;;;;13.35;100.00;101468.59;5070917;28;20103;-81
2023/09/23 09:50:16;;;;;;;8.70;1.73;;;;;;;13.48;100.00;101464.78;5070930;28;20024;-85
2023/09/23 09:52:46;;;;;;;6.70;1.42;;;;;;;13.45;100.00;101465.06;5069016;28;20093;-84
2023/09/23 09:55:22;;;;;;;6.03;2.05;;;;;;;13.47;100.00;101471.97;5070942;28;20028;-86
2023/09/23 09:57:48;;;;;;;6.70;1.50;;;;;;;13.49;100.00;101469.97;5070423;28;20040;-82
2023/09/23 10:00:35;;;;;;;11.70;2.10;;;;;;;13.61;100.00;101470.66;5070136;28;20033;-84
2023/09/23 10:03:08;;;;;;;7.97;1.70;;;;;;;13.76;100.00;101473.72;5069522;28;20191;-84
2023/09/23 10:05:39;;;;;;;8.45;1.80;;;;;;;13.88;100.00;101480.63;5069093;28;20109;-86
2023/09/23 10:08:12;;;;;;;9.60;1.77;;;;;;;14.03;100.00;101482.81;5070615;28;20072;-82
2023/09/23 10:10:44;;;;;;;9.95;1.85;;;;;;;14.18;100.00;101486.72;5069304;28;20083;-83
2023/09/23 10:13:24;;;;;;;6.82;2.08;;;;;;;14.14;100.00;101493.34;5069619;28;20036;-92
2023/09/23 10:15:50;;;;;;;8.52;2.03;;;;;;;14.17;100.00;101494.88;5069580;28;20033;-84
2023/09/23 10:18:19;;;;;;;13.25;2.00;;;;;;;14.20;100.00;101495.41;5071189;28;20413;-85
2023/09/23 10:20:49;;;;;;;10.88;2.08;;;;;;;14.33;100.00;101504.94;5071501;28;20107;-88
2023/09/23 10:23:17;;;;;;;11.40;2.00;;;;;;;14.37;100.00;101503.66;5069470;28;20444;-80
2023/09/23 10:25:43;;;;;;;9.93;1.80;;;;;;;14.43;100.00;101503.91;5070981;28;20068;-84
2023/09/23 10:28:23;;;;;;;7.72;1.55;;;;;;;14.61;100.00;101504.00;5070314;28;20035;-81
2023/09/23 10:31:06;;;;;;;11.73;1.25;;;;;;;14.99;100.00;101507.44;5068872;28;20033;-88
2023/09/23 10:33:36;;;;;;;6.80;1.52;;;;;;;15.18;100.00;101510.13;5052401;28;20043;-84
2023/09/23 10:36:03;;;;;;;10.13;1.40;;;;;;;15.37;100.00;101507.28;5070622;28;20052;-82
2023/09/23 10:38:38;;;;;;;7.75;1.08;;;;;;;15.42;100.00;101510.34;5069869;28;20033;-86
2023/09/23 10:41:04;;;;;;;6.82;1.63;;;;;;;15.45;100.00;101507.34;5053767;28;20052;-85
2023/09/23 10:43:34;;;;;;;3.83;1.60;;;;;;;15.36;100.00;101510.97;5068741;28;20069;-86
2023/09/23 10:46:02;;;;;;;10.95;1.40;;;;;;;15.38;100.00;101519.69;5053237;28;20168;-81
2023/09/23 10:48:29;;;;;;;5.40;1.40;;;;;;;15.16;100.00;101512.94;5069024;28;20127;-77
2023/09/23 10:50:55;;;;;;;4.53;1.40;;;;;;;14.95;100.00;101513.25;5070920;28;20115;-81
2023/09/23 10:53:25;;;;;;;3.33;0.80;;;;;;;14.75;100.00;101533.94;5071097;28;20028;-84
2023/09/23 10:55:51;;;;;;;2.70;1.40;;;;;;;14.65;100.00;101534.00;5071527;28;20058;-81
2023/09/23 10:58:17;;;;;;;2.20;0.80;;;;;;;14.53;100.00;101533.31;5069164;28;20025;-83
2023/09/23 11:00:43;;;;;;;4.22;1.08;;;;;;;14.40;100.00;101539.00;5068874;28;20085;-82
2023/09/23 11:03:15;;;;;;;3.08;1.17;;;;;;;14.49;100.00;101545.31;5070122;28;20027;-79
2023/09/23 11:05:43;;;;;;;3.17;0.65;;;;;;;14.69;100.00;101548.78;5072176;28;20032;-90
2023/09/23 11:08:10;;;;;;;3.50;1.13;;;;;;;15.08;100.00;101545.03;5072030;28;20021;-86
2023/09/23 11:10:55;;;;;;;5.57;0.90;;;;;;;15.44;100.00;101545.88;5070631;28;20035;-83
2023/09/23 11:13:21;;;;;;;6.70;1.08;;;;;;;15.53;100.00;101546.81;5071978;28;20033;-88
2023/09/23 11:15:48;;;;;;;2.53;0.80;;;;;;;15.64;100.00;101557.28;5074093;28;20025;-87
2023/09/23 11:18:17;;;;;;;2.47;0.82;;;;;;;15.99;100.00;101560.13;5074008;28;20086;-88